sensor_id;sensor_type;location;lat;lon;timestamp;temperature;humidity
64869;DHT22;51349;52.424;10.840;2022-09-13T00:04:07;14.90;99.90
64869;DHT22;51349;52.424;10.840;2022-09-13T00:09:08;15.00;99.90
64869;DHT22;51349;52.424;10.840;2022-09-13T00:14:08;15.00;99.90
64869;DHT22;51349;52.424;10.840;2022-09-13T00:19:09;15.00;99.90
64869;DHT22;51349;52.424;10.840;2022-09-13T00:24:10;14.90;99.90
64869;DHT22;51349;52.424;10.840;2022-09-13T00:29:11;15.00;99.90
64869;DHT22;51349;52.424;10.840;2022-09-13T00:34:11;15.00;99.90
64869;DHT22;51349;52.424;10.840;2022-09-13T00:39:12;15.00;99.90
64869;DHT22;51349;52.424;10.840;2022-09-13T00:49:54;15.20;99.90
64869;DHT22;51349;52.424;10.840;2022-09-13T00:55:04;15.20;99.90
64869;DHT22;51349;52.424;10.840;2022-09-13T01:00:17;15.10;99.90
64869;DHT22;51349;52.424;10.840;2022-09-13T01:05:28;15.10;99.90
64869;DHT22;51349;52.424;10.840;2022-09-13T01:10:30;15.00;99.90
64869;DHT22;51349;52.424;10.840;2022-09-13T01:15:37;15.00;99.90
64869;DHT22;51349;52.424;10.840;2022-09-13T01:31:36;14.90;99.90
64869;DHT22;51349;52.424;10.840;2022-09-13T01:42:17;14.90;99.90
64869;DHT22;51349;52.424;10.840;2022-09-13T01:52:43;14.70;99.90
64869;DHT22;51349;52.424;10.840;2022-09-13T02:03:05;14.60;99.90
64869;DHT22;51349;52.424;10.840;2022-09-13T02:08:20;14.60;99.90
64869;DHT22;51349;52.424;10.840;2022-09-13T02:13:26;14.60;99.90
64869;DHT22;51349;52.424;10.840;2022-09-13T02:18:34;14.60;99.90
64869;DHT22;51349;52.424;10.840;2022-09-13T02:23:49;14.40;99.90
64869;DHT22;51349;52.424;10.840;2022-09-13T02:28:53;14.30;99.90
64869;DHT22;51349;52.424;10.840;2022-09-13T02:34:00;14.30;99.90
64869;DHT22;51349;52.424;10.840;2022-09-13T02:39:07;14.20;99.90
64869;DHT22;51349;52.424;10.840;2022-09-13T02:49:54;14.10;99.90
64869;DHT22;51349;52.424;10.840;2022-09-13T03:00:11;14.00;99.90
64869;DHT22;51349;52.424;10.840;2022-09-13T03:05:11;14.00;99.90
64869;DHT22;51349;52.424;10.840;2022-09-13T03:10:13;14.00;99.90
64869;DHT22;51349;52.424;10.840;2022-09-13T03:15:44;14.10;99.90
64869;DHT22;51349;52.424;10.840;2022-09-13T03:26:25;14.10;99.90
64869;DHT22;51349;52.424;10.840;2022-09-13T03:31:34;14.50;99.90
64869;DHT22;51349;52.424;10.840;2022-09-13T03:36:43;14.40;99.90
64869;DHT22;51349;52.424;10.840;2022-09-13T03:41:49;14.40;99.90
64869;DHT22;51349;52.424;10.840;2022-09-13T03:46:54;14.80;99.90
64869;DHT22;51349;52.424;10.840;2022-09-13T03:51:57;14.80;99.90
64869;DHT22;51349;52.424;10.840;2022-09-13T04:02:06;14.80;99.90
64869;DHT22;51349;52.424;10.840;2022-09-13T04:07:12;14.70;99.90
64869;DHT22;51349;52.424;10.840;2022-09-13T04:12:14;14.70;99.90
64869;DHT22;51349;52.424;10.840;2022-09-13T04:17:15;14.70;99.90
64869;DHT22;51349;52.424;10.840;2022-09-13T04:22:16;14.70;99.90
64869;DHT22;51349;52.424;10.840;2022-09-13T04:27:17;14.70;99.90
64869;DHT22;51349;52.424;10.840;2022-09-13T04:32:18;14.60;99.90
64869;DHT22;51349;52.424;10.840;2022-09-13T04:37:18;14.50;99.90
64869;DHT22;51349;52.424;10.840;2022-09-13T04:42:20;14.50;99.90
64869;DHT22;51349;52.424;10.840;2022-09-13T04:47:20;14.50;99.90
64869;DHT22;51349;52.424;10.840;2022-09-13T04:52:22;14.50;99.90
64869;DHT22;51349;52.424;10.840;2022-09-13T04:57:23;14.50;99.90
64869;DHT22;51349;52.424;10.840;2022-09-13T05:02:26;14.50;99.90
64869;DHT22;51349;52.424;10.840;2022-09-13T05:07:27;14.50;99.90
64869;DHT22;51349;52.424;10.840;2022-09-13T05:12:27;14.50;99.90
64869;DHT22;51349;52.424;10.840;2022-09-13T05:17:29;14.60;99.90
64869;DHT22;51349;52.424;10.840;2022-09-13T05:22:29;14.60;99.90
64869;DHT22;51349;52.424;10.840;2022-09-13T05:27:30;14.70;99.90
64869;DHT22;51349;52.424;10.840;2022-09-13T05:32:31;14.70;99.90
64869;DHT22;51349;52.424;10.840;2022-09-13T05:37:32;14.80;99.90
64869;DHT22;51349;52.424;10.840;2022-09-13T05:42:33;14.80;99.90
64869;DHT22;51349;52.424;10.840;2022-09-13T05:47:33;14.90;99.90
64869;DHT22;51349;52.424;10.840;2022-09-13T05:52:34;14.90;99.90
64869;DHT22;51349;52.424;10.840;2022-09-13T05:57:35;14.90;99.90
64869;DHT22;51349;52.424;10.840;2022-09-13T06:02:36;15.00;99.90
64869;DHT22;51349;52.424;10.840;2022-09-13T06:07:41;15.10;99.90
64869;DHT22;51349;52.424;10.840;2022-09-13T06:12:42;15.20;99.90
64869;DHT22;51349;52.424;10.840;2022-09-13T06:17:42;15.30;99.90
64869;DHT22;51349;52.424;10.840;2022-09-13T06:22:43;15.30;99.90
64869;DHT22;51349;52.424;10.840;2022-09-13T06:27:44;15.40;99.90
64869;DHT22;51349;52.424;10.840;2022-09-13T06:32:44;15.50;99.90
64869;DHT22;51349;52.424;10.840;2022-09-13T06:37:45;15.60;99.90
64869;DHT22;51349;52.424;10.840;2022-09-13T06:42:45;15.60;99.90
64869;DHT22;51349;52.424;10.840;2022-09-13T06:47:46;15.70;99.90
64869;DHT22;51349;52.424;10.840;2022-09-13T06:52:46;15.80;99.90
64869;DHT22;51349;52.424;10.840;2022-09-13T06:57:47;15.90;99.90
64869;DHT22;51349;52.424;10.840;2022-09-13T07:02:51;16.00;99.90
64869;DHT22;51349;52.424;10.840;2022-09-13T07:07:52;16.20;99.90
64869;DHT22;51349;52.424;10.840;2022-09-13T07:12:52;16.30;99.90
64869;DHT22;51349;52.424;10.840;2022-09-13T07:17:53;16.40;99.90
64869;DHT22;51349;52.424;10.840;2022-09-13T07:22:54;16.80;99.90
64869;DHT22;51349;52.424;10.840;2022-09-13T07:27:54;16.80;99.90
64869;DHT22;51349;52.424;10.840;2022-09-13T07:32:55;17.00;99.90
64869;DHT22;51349;52.424;10.840;2022-09-13T07:37:55;17.30;99.90
64869;DHT22;51349;52.424;10.840;2022-09-13T07:42:56;17.40;99.90
64869;DHT22;51349;52.424;10.840;2022-09-13T07:48:00;17.50;99.90
64869;DHT22;51349;52.424;10.840;2022-09-13T07:53:01;17.60;99.90
64869;DHT22;51349;52.424;10.840;2022-09-13T07:58:01;17.50;99.90
64869;DHT22;51349;52.424;10.840;2022-09-13T08:03:02;17.70;99.90
64869;DHT22;51349;52.424;10.840;2022-09-13T08:08:03;17.70;99.90
64869;DHT22;51349;52.424;10.840;2022-09-13T08:13:03;17.80;99.90
64869;DHT22;51349;52.424;10.840;2022-09-13T08:18:04;18.00;99.90
64869;DHT22;51349;52.424;10.840;2022-09-13T08:23:06;18.10;99.90
64869;DHT22;51349;52.424;10.840;2022-09-13T08:28:09;18.40;99.90
64869;DHT22;51349;52.424;10.840;2022-09-13T08:33:12;18.30;99.90
64869;DHT22;51349;52.424;10.840;2022-09-13T08:38:13;17.90;99.90
64869;DHT22;51349;52.424;10.840;2022-09-13T08:48:46;16.80;99.90
64869;DHT22;51349;52.424;10.840;2022-09-13T08:53:49;16.80;99.90
64869;DHT22;51349;52.424;10.840;2022-09-13T08:58:53;17.00;99.90
64869;DHT22;51349;52.424;10.840;2022-09-13T09:09:05;17.00;99.90
64869;DHT22;51349;52.424;10.840;2022-09-13T09:14:17;16.90;99.90
64869;DHT22;51349;52.424;10.840;2022-09-13T09:19:39;17.00;99.90
64869;DHT22;51349;52.424;10.840;2022-09-13T09:24:44;17.00;99.90
64869;DHT22;51349;52.424;10.840;2022-09-13T09:29:49;17.10;99.90
64869;DHT22;51349;52.424;10.840;2022-09-13T09:35:15;17.20;99.90
64869;DHT22;51349;52.424;10.840;2022-09-13T09:40:19;17.00;99.90
64869;DHT22;51349;52.424;10.840;2022-09-13T09:45:31;17.40;99.90
64869;DHT22;51349;52.424;10.840;2022-09-13T09:50:36;17.60;99.90
64869;DHT22;51349;52.424;10.840;2022-09-13T09:55:51;17.40;99.90
64869;DHT22;51349;52.424;10.840;2022-09-13T10:00:56;17.30;99.90
64869;DHT22;51349;52.424;10.840;2022-09-13T10:06:11;17.20;99.90
64869;DHT22;51349;52.424;10.840;2022-09-13T10:11:14;17.20;99.90
64869;DHT22;51349;52.424;10.840;2022-09-13T10:16:24;17.20;99.90
64869;DHT22;51349;52.424;10.840;2022-09-13T10:21:26;17.60;99.90
64869;DHT22;51349;52.424;10.840;2022-09-13T10:26:27;17.80;99.90
64869;DHT22;51349;52.424;10.840;2022-09-13T10:31:43;17.60;99.90
64869;DHT22;51349;52.424;10.840;2022-09-13T10:41:56;17.50;99.90
64869;DHT22;51349;52.424;10.840;2022-09-13T10:47:01;17.50;99.90
64869;DHT22;51349;52.424;10.840;2022-09-13T10:57:50;17.50;99.90
64869;DHT22;51349;52.424;10.840;2022-09-13T11:03:16;17.50;99.90
64869;DHT22;51349;52.424;10.840;2022-09-13T11:30:23;18.00;99.90
64869;DHT22;51349;52.424;10.840;2022-09-13T11:46:02;17.70;99.90
64869;DHT22;51349;52.424;10.840;2022-09-13T11:56:54;17.60;99.90
64869;DHT22;51349;52.424;10.840;2022-09-13T12:07:43;17.80;99.90
64869;DHT22;51349;52.424;10.840;2022-09-13T12:12:47;17.90;99.90
64869;DHT22;51349;52.424;10.840;2022-09-13T12:18:12;18.00;99.90
64869;DHT22;51349;52.424;10.840;2022-09-13T12:23:19;18.20;99.90
64869;DHT22;51349;52.424;10.840;2022-09-13T12:28:25;18.20;99.90
64869;DHT22;51349;52.424;10.840;2022-09-13T12:33:27;18.10;99.90
64869;DHT22;51349;52.424;10.840;2022-09-13T12:55:21;18.40;99.90
64869;DHT22;51349;52.424;10.840;2022-09-13T13:05:29;18.80;99.90
64869;DHT22;51349;52.424;10.840;2022-09-13T13:10:36;18.90;99.90
64869;DHT22;51349;52.424;10.840;2022-09-13T13:20:45;19.00;99.90
64869;DHT22;51349;52.424;10.840;2022-09-13T13:26:05;19.10;99.90
64869;DHT22;51349;52.424;10.840;2022-09-13T13:36:31;19.20;99.90
64869;DHT22;51349;52.424;10.840;2022-09-13T13:41:54;19.50;99.90
64869;DHT22;51349;52.424;10.840;2022-09-13T14:13:35;20.00;99.90
64869;DHT22;51349;52.424;10.840;2022-09-13T14:23:41;19.80;99.90
64869;DHT22;51349;52.424;10.840;2022-09-13T14:28:42;20.00;99.90
64869;DHT22;51349;52.424;10.840;2022-09-13T14:33:43;19.80;99.90
64869;DHT22;51349;52.424;10.840;2022-09-13T14:38:49;19.60;99.90
64869;DHT22;51349;52.424;10.840;2022-09-13T14:43:50;19.50;99.90
64869;DHT22;51349;52.424;10.840;2022-09-13T14:48:55;19.60;99.90
64869;DHT22;51349;52.424;10.840;2022-09-13T14:54:20;19.80;99.90
64869;DHT22;51349;52.424;10.840;2022-09-13T14:59:45;20.10;99.90
64869;DHT22;51349;52.424;10.840;2022-09-13T15:04:51;20.30;99.90
64869;DHT22;51349;52.424;10.840;2022-09-13T15:09:56;20.20;99.90
64869;DHT22;51349;52.424;10.840;2022-09-13T15:15:41;20.20;99.90
64869;DHT22;51349;52.424;10.840;2022-09-13T15:25:55;20.50;99.90
64869;DHT22;51349;52.424;10.840;2022-09-13T15:30:58;20.40;99.90
64869;DHT22;51349;52.424;10.840;2022-09-13T15:36:24;20.30;99.90
64869;DHT22;51349;52.424;10.840;2022-09-13T15:41:34;20.60;99.90
64869;DHT22;51349;52.424;10.840;2022-09-13T15:46:52;20.60;99.90
64869;DHT22;51349;52.424;10.840;2022-09-13T15:51:55;20.70;99.90
64869;DHT22;51349;52.424;10.840;2022-09-13T15:56:57;20.80;99.90
64869;DHT22;51349;52.424;10.840;2022-09-13T16:01:59;21.10;99.90
64869;DHT22;51349;52.424;10.840;2022-09-13T16:07:00;20.90;99.90
64869;DHT22;51349;52.424;10.840;2022-09-13T16:12:04;20.40;99.90
64869;DHT22;51349;52.424;10.840;2022-09-13T16:17:20;20.20;99.90
64869;DHT22;51349;52.424;10.840;2022-09-13T16:22:21;20.00;99.90
64869;DHT22;51349;52.424;10.840;2022-09-13T16:27:22;20.20;99.90
64869;DHT22;51349;52.424;10.840;2022-09-13T16:32:25;19.90;99.90
64869;DHT22;51349;52.424;10.840;2022-09-13T16:37:26;19.90;99.90
64869;DHT22;51349;52.424;10.840;2022-09-13T16:42:26;19.60;99.90
64869;DHT22;51349;52.424;10.840;2022-09-13T16:47:27;19.70;99.90
64869;DHT22;51349;52.424;10.840;2022-09-13T16:52:29;19.90;99.90
64869;DHT22;51349;52.424;10.840;2022-09-13T16:57:30;19.60;99.90
64869;DHT22;51349;52.424;10.840;2022-09-13T17:02:31;19.50;99.90
64869;DHT22;51349;52.424;10.840;2022-09-13T17:07:31;19.30;99.90
64869;DHT22;51349;52.424;10.840;2022-09-13T17:12:33;19.10;99.90
64869;DHT22;51349;52.424;10.840;2022-09-13T17:17:36;19.00;99.90
64869;DHT22;51349;52.424;10.840;2022-09-13T17:22:38;18.80;99.90
64869;DHT22;51349;52.424;10.840;2022-09-13T17:27:38;18.70;99.90
64869;DHT22;51349;52.424;10.840;2022-09-13T17:32:39;18.50;99.90
64869;DHT22;51349;52.424;10.840;2022-09-13T17:37:39;18.20;99.90
64869;DHT22;51349;52.424;10.840;2022-09-13T17:42:40;18.00;99.90
64869;DHT22;51349;52.424;10.840;2022-09-13T17:47:41;17.80;99.90
64869;DHT22;51349;52.424;10.840;2022-09-13T17:52:45;17.80;99.90
64869;DHT22;51349;52.424;10.840;2022-09-13T17:57:48;17.60;99.90
64869;DHT22;51349;52.424;10.840;2022-09-13T18:02:49;17.30;99.90
64869;DHT22;51349;52.424;10.840;2022-09-13T18:07:50;17.00;99.90
64869;DHT22;51349;52.424;10.840;2022-09-13T18:12:51;16.90;99.90
64869;DHT22;51349;52.424;10.840;2022-09-13T18:17:51;16.60;99.90
64869;DHT22;51349;52.424;10.840;2022-09-13T18:22:52;16.60;99.90
64869;DHT22;51349;52.424;10.840;2022-09-13T18:27:53;16.30;99.90
64869;DHT22;51349;52.424;10.840;2022-09-13T18:32:53;16.10;99.90
64869;DHT22;51349;52.424;10.840;2022-09-13T18:37:57;15.90;99.90
64869;DHT22;51349;52.424;10.840;2022-09-13T18:43:01;15.90;99.90
64869;DHT22;51349;52.424;10.840;2022-09-13T18:48:01;15.60;99.90
64869;DHT22;51349;52.424;10.840;2022-09-13T18:53:02;15.60;99.90
64869;DHT22;51349;52.424;10.840;2022-09-13T18:58:03;15.60;99.90
64869;DHT22;51349;52.424;10.840;2022-09-13T19:03:04;15.60;99.90
64869;DHT22;51349;52.424;10.840;2022-09-13T19:08:09;15.50;99.90
64869;DHT22;51349;52.424;10.840;2022-09-13T19:13:10;15.30;99.90
64869;DHT22;51349;52.424;10.840;2022-09-13T19:18:10;15.30;99.90
64869;DHT22;51349;52.424;10.840;2022-09-13T19:23:11;15.20;99.90
64869;DHT22;51349;52.424;10.840;2022-09-13T19:28:11;15.00;99.90
64869;DHT22;51349;52.424;10.840;2022-09-13T19:33:12;14.90;99.90
64869;DHT22;51349;52.424;10.840;2022-09-13T19:38:13;14.80;99.90
64869;DHT22;51349;52.424;10.840;2022-09-13T19:43:14;14.80;99.90
64869;DHT22;51349;52.424;10.840;2022-09-13T19:48:14;15.00;99.90
64869;DHT22;51349;52.424;10.840;2022-09-13T19:53:15;15.00;99.90
64869;DHT22;51349;52.424;10.840;2022-09-13T19:58:16;15.10;99.90
64869;DHT22;51349;52.424;10.840;2022-09-13T20:03:16;15.00;99.90
64869;DHT22;51349;52.424;10.840;2022-09-13T20:08:22;14.90;99.90
64869;DHT22;51349;52.424;10.840;2022-09-13T20:13:23;14.70;99.90
64869;DHT22;51349;52.424;10.840;2022-09-13T20:18:24;14.70;99.90
64869;DHT22;51349;52.424;10.840;2022-09-13T20:23:24;14.50;99.90
64869;DHT22;51349;52.424;10.840;2022-09-13T20:28:25;14.40;99.90
64869;DHT22;51349;52.424;10.840;2022-09-13T20:33:26;14.40;99.90
64869;DHT22;51349;52.424;10.840;2022-09-13T20:38:26;14.30;99.90
64869;DHT22;51349;52.424;10.840;2022-09-13T20:43:27;14.20;99.90
64869;DHT22;51349;52.424;10.840;2022-09-13T20:48:28;14.20;99.90
64869;DHT22;51349;52.424;10.840;2022-09-13T20:53:29;14.00;99.90
64869;DHT22;51349;52.424;10.840;2022-09-13T20:58:30;13.90;99.90
64869;DHT22;51349;52.424;10.840;2022-09-13T21:03:38;13.80;99.90
64869;DHT22;51349;52.424;10.840;2022-09-13T21:08:42;13.70;99.90
64869;DHT22;51349;52.424;10.840;2022-09-13T21:18:48;13.50;99.90
64869;DHT22;51349;52.424;10.840;2022-09-13T21:23:49;13.60;99.90
64869;DHT22;51349;52.424;10.840;2022-09-13T21:28:50;13.40;99.90
64869;DHT22;51349;52.424;10.840;2022-09-13T21:33:58;13.50;99.90
64869;DHT22;51349;52.424;10.840;2022-09-13T21:38:59;13.40;99.90
64869;DHT22;51349;52.424;10.840;2022-09-13T21:44:01;13.40;99.90
64869;DHT22;51349;52.424;10.840;2022-09-13T21:49:04;13.40;99.90
64869;DHT22;51349;52.424;10.840;2022-09-13T21:54:07;13.40;99.90
64869;DHT22;51349;52.424;10.840;2022-09-13T21:59:12;13.30;99.90
64869;DHT22;51349;52.424;10.840;2022-09-13T22:04:19;13.30;99.90
64869;DHT22;51349;52.424;10.840;2022-09-13T22:09:23;13.30;99.90
64869;DHT22;51349;52.424;10.840;2022-09-13T22:14:27;13.10;99.90
64869;DHT22;51349;52.424;10.840;2022-09-13T22:19:27;13.10;99.90
64869;DHT22;51349;52.424;10.840;2022-09-13T22:24:30;13.10;99.90
64869;DHT22;51349;52.424;10.840;2022-09-13T22:29:31;12.90;99.90
64869;DHT22;51349;52.424;10.840;2022-09-13T22:34:32;12.90;99.90
64869;DHT22;51349;52.424;10.840;2022-09-13T22:39:34;12.90;99.90
64869;DHT22;51349;52.424;10.840;2022-09-13T22:44:34;12.80;99.90
64869;DHT22;51349;52.424;10.840;2022-09-13T22:49:35;12.80;99.90
64869;DHT22;51349;52.424;10.840;2022-09-13T22:54:36;12.70;99.90
64869;DHT22;51349;52.424;10.840;2022-09-13T22:59:36;12.80;99.90
64869;DHT22;51349;52.424;10.840;2022-09-13T23:04:37;12.80;99.90
64869;DHT22;51349;52.424;10.840;2022-09-13T23:09:38;12.80;99.90
64869;DHT22;51349;52.424;10.840;2022-09-13T23:14:38;12.70;99.90
64869;DHT22;51349;52.424;10.840;2022-09-13T23:19:39;12.60;99.90
64869;DHT22;51349;52.424;10.840;2022-09-13T23:24:40;12.60;99.90
64869;DHT22;51349;52.424;10.840;2022-09-13T23:29:40;12.50;99.90
64869;DHT22;51349;52.424;10.840;2022-09-13T23:34:41;12.40;99.90
64869;DHT22;51349;52.424;10.840;2022-09-13T23:39:41;12.20;99.90
64869;DHT22;51349;52.424;10.840;2022-09-13T23:44:42;12.20;99.90
64869;DHT22;51349;52.424;10.840;2022-09-13T23:49:49;12.10;99.90
64869;DHT22;51349;52.424;10.840;2022-09-13T23:54:50;12.20;99.90
64869;DHT22;51349;52.424;10.840;2022-09-13T23:59:51;12.20;99.90
